Time;durP1;ratioP1;P1;durP2;ratioP2;P2;SDS_P1;SDS_P2;PMS_P1;PMS_P2;Temp;Humidity;BMP_temperature;BMP_pressure;BME280_temperature;BME280_humidity;BME280_pressure;Samples;Min_cycle;Max_cycle;Signal;HPM_P1;HPM_P2
2022/03/09 00:00:36;;;;;;;;;60.00;44.25;;;;;;;;5035604;28;46453;-80
2022/03/09 00:03:01;;;;;;;;;58.75;43.25;;;;;;;;5035734;28;45391;-78
2022/03/09 00:05:27;;;;;;;;;60.75;48.25;;;;;;;;5017613;28;45333;-80
2022/03/09 00:07:52;;;;;;;;;57.75;45.75;;;;;;;;5035726;28;45340;-80
2022/03/09 00:10:17;;;;;;;;;59.50;46.75;;;;;;;;5035761;28;47581;-79
2022/03/09 00:12:43;;;;;;;;;56.75;47.25;;;;;;;;5019927;28;45478;-80
2022/03/09 00:15:08;;;;;;;;;60.25;46.50;;;;;;;;5036085;28;45279;-80
2022/03/09 00:17:34;;;;;;;;;58.50;45.75;;;;;;;;5035224;28;45424;-79
2022/03/09 00:19:59;;;;;;;;;62.00;47.25;;;;;;;;5035190;28;46411;-79
2022/03/09 00:22:24;;;;;;;;;62.00;45.25;;;;;;;;5035070;28;45408;-79
2022/03/09 00:24:49;;;;;;;;;61.00;48.75;;;;;;;;5035632;28;45560;-78
2022/03/09 00:27:14;;;;;;;;;57.00;46.25;;;;;;;;5017967;28;45325;-80
2022/03/09 00:29:40;;;;;;;;;58.00;44.75;;;;;;;;5034408;28;45415;-79
2022/03/09 00:32:06;;;;;;;;;61.25;48.75;;;;;;;;5034937;28;45593;-79
2022/03/09 00:34:31;;;;;;;;;61.75;47.00;;;;;;;;5035064;28;45538;-79
2022/03/09 00:36:57;;;;;;;;;60.00;45.50;;;;;;;;5035112;28;45360;-78
2022/03/09 00:39:22;;;;;;;;;61.00;47.25;;;;;;;;5035792;28;45987;-78
2022/03/09 00:41:47;;;;;;;;;56.75;45.50;;;;;;;;5034775;28;45317;-80
2022/03/09 00:44:12;;;;;;;;;60.25;47.75;;;;;;;;5034678;28;45451;-79
2022/03/09 00:46:37;;;;;;;;;61.25;48.50;;;;;;;;5033833;28;45466;-80
2022/03/09 00:49:03;;;;;;;;;58.25;46.50;;;;;;;;5020191;28;45574;-80
2022/03/09 00:51:28;;;;;;;;;62.00;48.25;;;;;;;;5019184;28;45301;-78
2022/03/09 00:53:53;;;;;;;;;56.50;45.75;;;;;;;;5035336;28;45308;-79
2022/03/09 00:56:19;;;;;;;;;65.50;50.00;;;;;;;;5034871;28;45453;-80
2022/03/09 00:58:44;;;;;;;;;63.50;47.75;;;;;;;;5034174;28;46907;-78
2022/03/09 01:01:10;;;;;;;;;59.25;47.25;;;;;;;;5034301;28;45333;-80
2022/03/09 01:03:36;;;;;;;;;61.25;47.25;;;;;;;;5034796;28;45470;-79
2022/03/09 01:06:01;;;;;;;;;60.75;46.75;;;;;;;;5034862;28;45563;-77
2022/03/09 01:08:26;;;;;;;;;62.00;49.25;;;;;;;;5034056;28;45523;-78
2022/03/09 01:10:51;;;;;;;;;58.50;45.50;;;;;;;;5034283;28;45477;-79
2022/03/09 01:13:17;;;;;;;;;56.25;46.00;;;;;;;;5034517;28;45406;-78
2022/03/09 01:15:42;;;;;;;;;62.00;47.00;;;;;;;;5034808;28;45237;-80
2022/03/09 01:18:07;;;;;;;;;61.00;48.00;;;;;;;;5035091;28;46343;-77
2022/03/09 01:20:32;;;;;;;;;59.25;48.00;;;;;;;;5034344;28;45375;-79
2022/03/09 01:22:57;;;;;;;;;63.00;48.50;;;;;;;;5034399;28;45438;-79
2022/03/09 01:25:23;;;;;;;;;59.00;47.00;;;;;;;;5034310;28;45473;-79
2022/03/09 01:27:48;;;;;;;;;63.00;49.00;;;;;;;;5033887;28;47015;-80
2022/03/09 01:30:13;;;;;;;;;64.25;49.00;;;;;;;;5002680;28;45420;-80
2022/03/09 01:32:38;;;;;;;;;61.50;47.75;;;;;;;;5032257;28;45352;-79
2022/03/09 01:35:04;;;;;;;;;59.25;44.25;;;;;;;;5033721;28;45272;-80
2022/03/09 01:37:29;;;;;;;;;61.75;49.00;;;;;;;;5034245;28;46410;-80
2022/03/09 01:39:54;;;;;;;;;54.25;42.25;;;;;;;;5034361;28;45289;-77
2022/03/09 01:42:20;;;;;;;;;51.00;38.00;;;;;;;;5034716;28;45313;-79
2022/03/09 01:44:45;;;;;;;;;58.75;46.25;;;;;;;;5033999;28;45340;-80
2022/03/09 01:47:10;;;;;;;;;58.75;46.75;;;;;;;;5034064;28;46036;-79
2022/03/09 01:49:36;;;;;;;;;62.75;48.00;;;;;;;;5034222;28;45477;-78
2022/03/09 01:52:02;;;;;;;;;57.25;44.25;;;;;;;;5034079;28;45438;-80
2022/03/09 01:54:28;;;;;;;;;64.50;47.00;;;;;;;;5034724;28;45427;-79
2022/03/09 01:56:54;;;;;;;;;56.00;46.50;;;;;;;;5034047;28;45319;-79
2022/03/09 01:59:19;;;;;;;;;58.00;46.00;;;;;;;;5034106;28;45439;-79
2022/03/09 02:01:45;;;;;;;;;61.00;47.00;;;;;;;;5034327;28;45412;-79
2022/03/09 02:04:10;;;;;;;;;53.75;44.00;;;;;;;;5033949;28;45284;-79
2022/03/09 02:06:36;;;;;;;;;65.75;48.00;;;;;;;;5034068;28;45577;-78
2022/03/09 02:11:47;;;;;;;;;59.25;45.50;;;;;;;;5032934;28;45446;-78
2022/03/09 02:14:32;;;;;;;;;60.00;48.50;;;;;;;;5015956;28;45467;-79
2022/03/09 02:16:58;;;;;;;;;60.50;45.75;;;;;;;;5033577;28;46955;-79
2022/03/09 02:19:24;;;;;;;;;61.00;45.75;;;;;;;;5033831;28;45500;-79
2022/03/09 02:21:51;;;;;;;;;58.75;45.00;;;;;;;;5015984;28;45538;-79
2022/03/09 02:24:16;;;;;;;;;57.00;46.00;;;;;;;;5033867;28;45479;-79
2022/03/09 02:26:42;;;;;;;;;60.00;47.25;;;;;;;;5033467;28;47265;-79
2022/03/09 02:29:07;;;;;;;;;62.25;48.75;;;;;;;;5033600;28;45693;-79
2022/03/09 02:31:32;;;;;;;;;63.25;48.00;;;;;;;;5033752;28;45511;-79
2022/03/09 02:33:57;;;;;;;;;61.75;47.50;;;;;;;;5034184;28;45487;-79
2022/03/09 02:36:23;;;;;;;;;61.50;47.50;;;;;;;;5018770;28;46243;-79
2022/03/09 02:38:48;;;;;;;;;62.00;49.25;;;;;;;;5033052;28;45390;-78
2022/03/09 02:41:13;;;;;;;;;65.25;50.00;;;;;;;;5027904;28;45255;-78
2022/03/09 02:43:38;;;;;;;;;63.75;47.25;;;;;;;;5022832;28;45388;-78
2022/03/09 02:46:04;;;;;;;;;59.25;47.00;;;;;;;;5022088;28;45398;-78
2022/03/09 02:48:29;;;;;;;;;50.50;39.25;;;;;;;;5021408;28;45328;-78
2022/03/09 02:50:54;;;;;;;;;54.00;43.00;;;;;;;;5036803;28;45436;-78
2022/03/09 02:53:19;;;;;;;;;44.75;35.50;;;;;;;;5036680;28;45511;-80
2022/03/09 02:55:45;;;;;;;;;57.00;43.50;;;;;;;;5036636;28;46225;-79
2022/03/09 02:58:10;;;;;;;;;42.75;34.75;;;;;;;;5036993;28;45594;-80
2022/03/09 03:00:35;;;;;;;;;44.25;34.50;;;;;;;;5019295;28;45489;-80
2022/03/09 03:03:00;;;;;;;;;46.75;37.00;;;;;;;;5041895;28;45471;-79
2022/03/09 03:05:25;;;;;;;;;44.00;36.50;;;;;;;;5041839;28;47172;-78
2022/03/09 03:07:51;;;;;;;;;37.50;31.75;;;;;;;;5037174;28;45523;-78
2022/03/09 03:10:16;;;;;;;;;34.00;31.75;;;;;;;;5036915;28;45434;-78
2022/03/09 03:12:41;;;;;;;;;31.50;28.75;;;;;;;;5036599;28;45432;-79
2022/03/09 03:15:06;;;;;;;;;28.75;28.00;;;;;;;;5019084;28;46286;-78
2022/03/09 03:17:36;;;;;;;;;26.25;25.50;;;;;;;;5036163;28;45310;-79
2022/03/09 03:20:01;;;;;;;;;25.75;22.00;;;;;;;;5036403;28;45468;-79
2022/03/09 03:22:27;;;;;;;;;23.50;23.00;;;;;;;;5036101;28;45548;-79
2022/03/09 03:24:52;;;;;;;;;28.50;24.25;;;;;;;;5036341;28;46052;-79
2022/03/09 03:27:17;;;;;;;;;27.75;26.75;;;;;;;;5021860;28;45614;-79
2022/03/09 03:29:42;;;;;;;;;28.00;21.50;;;;;;;;5035337;28;45533;-80
2022/03/09 03:32:10;;;;;;;;;27.00;25.75;;;;;;;;5036243;28;45528;-78
2022/03/09 03:34:35;;;;;;;;;27.75;23.50;;;;;;;;5036405;28;46370;-78
2022/03/09 03:37:00;;;;;;;;;24.25;22.00;;;;;;;;5036564;28;45292;-79
2022/03/09 03:39:25;;;;;;;;;25.25;24.00;;;;;;;;5037086;28;45336;-80
2022/03/09 03:41:51;;;;;;;;;26.00;20.00;;;;;;;;5024943;28;45384;-79
2022/03/09 03:44:16;;;;;;;;;34.25;26.00;;;;;;;;5031254;28;46989;-79
2022/03/09 03:46:41;;;;;;;;;23.50;19.00;;;;;;;;5036103;28;45332;-79
2022/03/09 03:49:06;;;;;;;;;21.75;19.75;;;;;;;;5036378;28;45398;-80
2022/03/09 03:51:31;;;;;;;;;26.25;26.00;;;;;;;;5035834;28;45394;-79
2022/03/09 03:53:57;;;;;;;;;24.25;19.75;;;;;;;;5023087;28;45514;-79
2022/03/09 03:56:22;;;;;;;;;25.50;21.75;;;;;;;;5031404;28;45416;-79
2022/03/09 03:58:47;;;;;;;;;26.75;22.25;;;;;;;;5035717;28;45654;-80
2022/03/09 04:01:12;;;;;;;;;20.00;19.00;;;;;;;;5036091;28;45614;-79
2022/03/09 04:03:37;;;;;;;;;23.00;19.25;;;;;;;;5018116;28;47274;-79
2022/03/09 04:06:03;;;;;;;;;24.00;22.50;;;;;;;;5022618;28;45529;-77
2022/03/09 04:08:28;;;;;;;;;23.25;20.50;;;;;;;;5032959;28;45363;-79
2022/03/09 04:10:53;;;;;;;;;22.75;17.00;;;;;;;;5035593;28;45485;-78
2022/03/09 04:13:18;;;;;;;;;19.25;18.50;;;;;;;;5035332;28;45543;-80
2022/03/09 04:15:43;;;;;;;;;23.00;21.00;;;;;;;;5035121;28;45578;-79
2022/03/09 04:18:09;;;;;;;;;19.75;18.00;;;;;;;;5035405;28;45391;-79
2022/03/09 04:20:34;;;;;;;;;21.50;19.75;;;;;;;;5034752;28;45539;-78
2022/03/09 04:22:59;;;;;;;;;44.50;36.50;;;;;;;;5035371;28;45445;-79
2022/03/09 04:25:26;;;;;;;;;47.75;39.25;;;;;;;;5017660;28;45397;-78
2022/03/09 04:27:51;;;;;;;;;60.00;46.50;;;;;;;;5034976;28;45514;-78
2022/03/09 04:30:16;;;;;;;;;56.75;46.25;;;;;;;;5035819;28;45335;-78
2022/03/09 04:32:42;;;;;;;;;60.50;44.50;;;;;;;;5034976;28;45464;-77
2022/03/09 04:35:07;;;;;;;;;56.50;45.25;;;;;;;;5034491;28;45349;-77
2022/03/09 04:37:33;;;;;;;;;60.75;45.50;;;;;;;;5016862;28;45468;-77
2022/03/09 04:39:58;;;;;;;;;61.75;47.75;;;;;;;;5034931;28;45617;-78
2022/03/09 04:42:24;;;;;;;;;61.75;47.75;;;;;;;;5034949;28;46335;-78
2022/03/09 04:44:49;;;;;;;;;64.25;49.50;;;;;;;;5034422;28;45425;-79
2022/03/09 04:47:14;;;;;;;;;58.75;47.25;;;;;;;;5034766;28;45404;-78
2022/03/09 04:49:40;;;;;;;;;58.00;47.50;;;;;;;;5034318;28;45436;-80
2022/03/09 04:52:05;;;;;;;;;61.00;46.50;;;;;;;;5035243;28;45585;-78
2022/03/09 04:54:30;;;;;;;;;60.50;48.25;;;;;;;;5043482;28;45302;-79
2022/03/09 04:56:56;;;;;;;;;60.50;47.00;;;;;;;;5027943;28;45572;-78
2022/03/09 04:59:21;;;;;;;;;57.00;43.50;;;;;;;;5031430;28;45586;-79
2022/03/09 05:01:46;;;;;;;;;56.00;45.75;;;;;;;;5034016;28;46432;-78
2022/03/09 05:04:11;;;;;;;;;60.33;47.00;;;;;;;;5034385;28;45412;-79
2022/03/09 05:06:37;;;;;;;;;61.25;47.50;;;;;;;;5035715;28;45614;-80
2022/03/09 05:09:02;;;;;;;;;58.75;45.00;;;;;;;;5039928;28;45602;-79
2022/03/09 05:11:27;;;;;;;;;63.67;49.67;;;;;;;;5040976;28;46102;-79
2022/03/09 05:13:52;;;;;;;;;55.75;45.50;;;;;;;;5034792;28;45276;-78
2022/03/09 05:16:17;;;;;;;;;58.50;47.50;;;;;;;;5034665;28;45465;-80
2022/03/09 05:18:43;;;;;;;;;58.25;48.00;;;;;;;;5034291;28;45386;-80
2022/03/09 05:21:08;;;;;;;;;53.00;42.25;;;;;;;;5034483;28;46376;-80
2022/03/09 05:23:34;;;;;;;;;60.67;46.33;;;;;;;;5024854;28;45434;-79
2022/03/09 05:25:59;;;;;;;;;64.00;50.33;;;;;;;;5027020;28;45443;-79
2022/03/09 05:28:24;;;;;;;;;64.00;50.67;;;;;;;;5034174;28;45430;-80
2022/03/09 05:30:49;;;;;;;;;62.67;48.00;;;;;;;;5033123;28;46221;-80
2022/03/09 05:33:15;;;;;;;;;63.25;49.00;;;;;;;;5033911;28;45249;-78
2022/03/09 05:35:40;;;;;;;;;56.50;45.00;;;;;;;;5033919;28;45277;-80
2022/03/09 05:38:05;;;;;;;;;56.50;45.25;;;;;;;;5034053;28;45666;-78
2022/03/09 05:40:30;;;;;;;;;57.75;45.25;;;;;;;;5033343;28;46194;-79
2022/03/09 05:42:55;;;;;;;;;57.00;46.25;;;;;;;;5033788;28;45453;-79
2022/03/09 05:45:21;;;;;;;;;64.25;51.50;;;;;;;;5033744;28;45292;-80
2022/03/09 05:47:46;;;;;;;;;57.75;45.25;;;;;;;;5015489;28;45392;-79
2022/03/09 05:50:11;;;;;;;;;55.25;45.50;;;;;;;;5033554;28;46391;-79
2022/03/09 05:52:36;;;;;;;;;51.25;42.75;;;;;;;;5033115;28;45268;-78
2022/03/09 05:55:02;;;;;;;;;59.00;46.50;;;;;;;;5015481;28;45498;-79
2022/03/09 05:57:28;;;;;;;;;56.00;45.25;;;;;;;;5033422;28;45459;-78
2022/03/09 05:59:53;;;;;;;;;53.75;43.00;;;;;;;;5033548;28;48615;-79
2022/03/09 06:02:18;;;;;;;;;57.00;46.00;;;;;;;;5026024;28;45855;-79
2022/03/09 06:04:45;;;;;;;;;54.75;45.25;;;;;;;;5024252;28;45524;-77
2022/03/09 06:07:10;;;;;;;;;55.50;45.75;;;;;;;;5032777;28;45363;-77
2022/03/09 06:09:35;;;;;;;;;54.25;45.25;;;;;;;;5032640;28;45974;-75
2022/03/09 06:12:00;;;;;;;;;54.75;43.50;;;;;;;;5033488;28;45525;-76
2022/03/09 06:14:25;;;;;;;;;52.25;42.75;;;;;;;;5032679;28;45506;-78
2022/03/09 06:16:51;;;;;;;;;62.25;49.50;;;;;;;;5031829;28;45249;-77
2022/03/09 06:19:17;;;;;;;;;61.25;48.50;;;;;;;;5033071;28;47029;-76
2022/03/09 06:21:42;;;;;;;;;57.00;43.75;;;;;;;;5035825;28;45550;-77
2022/03/09 06:24:08;;;;;;;;;53.50;42.00;;;;;;;;5036603;28;45375;-77
2022/03/09 06:26:33;;;;;;;;;60.33;47.33;;;;;;;;5036122;28;45503;-77
2022/03/09 06:28:58;;;;;;;;;56.75;43.50;;;;;;;;5035812;28;46139;-77
2022/03/09 06:31:23;;;;;;;;;58.50;47.00;;;;;;;;5035540;28;45392;-77
2022/03/09 06:33:49;;;;;;;;;61.33;47.33;;;;;;;;5036047;28;45451;-78
2022/03/09 06:36:15;;;;;;;;;55.50;42.75;;;;;;;;5036500;28;45314;-77
2022/03/09 06:38:40;;;;;;;;;63.33;49.33;;;;;;;;5035801;28;46351;-78
2022/03/09 06:41:06;;;;;;;;;55.25;42.00;;;;;;;;5030824;28;45482;-81
2022/03/09 06:43:31;;;;;;;;;60.00;46.50;;;;;;;;5024515;28;45297;-76
2022/03/09 06:45:56;;;;;;;;;55.50;44.50;;;;;;;;5035726;28;45332;-76
2022/03/09 06:48:21;;;;;;;;;54.00;43.00;;;;;;;;5036418;28;46602;-77
2022/03/09 06:50:47;;;;;;;;;62.50;47.75;;;;;;;;5035347;28;45269;-78
2022/03/09 06:53:12;;;;;;;;;54.00;45.50;;;;;;;;5035162;28;45494;-77
2022/03/09 06:55:37;;;;;;;;;58.75;45.50;;;;;;;;5035486;28;45560;-82
2022/03/09 06:58:03;;;;;;;;;59.00;47.00;;;;;;;;5035489;28;46099;-81
2022/03/09 07:00:28;;;;;;;;;51.00;39.00;;;;;;;;5035828;28;45380;-82
2022/03/09 07:02:56;;;;;;;;;53.50;42.75;;;;;;;;5035669;28;45427;-85
2022/03/09 07:05:21;;;;;;;;;55.75;46.00;;;;;;;;5028115;28;45428;-83
2022/03/09 07:07:46;;;;;;;;;48.25;36.75;;;;;;;;5026421;28;45351;-83
2022/03/09 07:10:13;;;;;;;;;55.50;43.25;;;;;;;;5036761;28;45244;-84
2022/03/09 07:12:38;;;;;;;;;55.75;43.25;;;;;;;;5035660;28;45408;-83
2022/03/09 07:15:04;;;;;;;;;53.25;43.00;;;;;;;;5034574;28;45545;-83
2022/03/09 07:17:29;;;;;;;;;56.00;43.25;;;;;;;;5034696;28;47418;-83
2022/03/09 07:19:54;;;;;;;;;56.75;42.00;;;;;;;;5030895;28;45458;-81
2022/03/09 07:22:20;;;;;;;;;56.75;44.25;;;;;;;;5024442;28;45306;-82
2022/03/09 07:24:45;;;;;;;;;53.75;42.50;;;;;;;;5038555;28;45376;-84
2022/03/09 07:27:10;;;;;;;;;48.50;40.00;;;;;;;;5019570;28;48321;-85
2022/03/09 07:29:35;;;;;;;;;51.25;40.25;;;;;;;;5027716;28;45636;-84
2022/03/09 07:32:01;;;;;;;;;49.50;40.75;;;;;;;;5029049;28;45482;-84
2022/03/09 07:34:26;;;;;;;;;49.00;40.25;;;;;;;;5037584;28;45575;-83
2022/03/09 07:36:53;;;;;;;;;49.75;39.25;;;;;;;;5035701;28;45723;-84
2022/03/09 07:39:19;;;;;;;;;49.75;41.25;;;;;;;;5034814;28;45471;-84
2022/03/09 07:41:45;;;;;;;;;47.50;38.50;;;;;;;;5033520;28;45562;-84
2022/03/09 07:44:10;;;;;;;;;50.50;38.00;;;;;;;;5033088;28;45466;-84
2022/03/09 07:46:35;;;;;;;;;40.75;34.50;;;;;;;;5033718;28;46119;-84
2022/03/09 07:49:01;;;;;;;;;46.00;35.50;;;;;;;;5034559;28;45406;-84
2022/03/09 07:51:26;;;;;;;;;54.25;43.50;;;;;;;;5034931;28;45425;-84
2022/03/09 07:53:51;;;;;;;;;49.00;37.75;;;;;;;;5018324;28;45477;-83
2022/03/09 07:56:16;;;;;;;;;47.50;37.50;;;;;;;;5033902;28;45451;-84
2022/03/09 07:58:42;;;;;;;;;41.75;35.50;;;;;;;;5033237;28;46039;-83
2022/03/09 08:01:07;;;;;;;;;47.50;37.75;;;;;;;;5035155;28;45318;-84
2022/03/09 08:03:33;;;;;;;;;43.25;35.50;;;;;;;;5017679;28;45431;-83
2022/03/09 08:05:58;;;;;;;;;39.75;34.75;;;;;;;;5020409;28;45545;-84
2022/03/09 08:08:23;;;;;;;;;50.25;39.00;;;;;;;;5030566;28;45391;-85
2022/03/09 08:10:48;;;;;;;;;46.50;36.75;;;;;;;;5031418;28;45411;-83
2022/03/09 08:13:14;;;;;;;;;41.50;36.50;;;;;;;;5020743;28;45319;-84
2022/03/09 08:15:40;;;;;;;;;35.75;33.25;;;;;;;;5034734;28;46732;-83
2022/03/09 08:18:05;;;;;;;;;38.75;35.50;;;;;;;;5034937;28;45350;-84
2022/03/09 08:20:30;;;;;;;;;46.25;37.50;;;;;;;;5015965;28;45387;-83
2022/03/09 08:22:55;;;;;;;;;39.50;34.50;;;;;;;;5031004;28;45486;-83
2022/03/09 08:25:20;;;;;;;;;48.25;37.50;;;;;;;;5022129;28;47178;-82
2022/03/09 08:27:46;;;;;;;;;41.75;34.75;;;;;;;;5035145;28;45565;-84
2022/03/09 08:30:11;;;;;;;;;34.75;30.50;;;;;;;;5035411;28;45341;-83
2022/03/09 08:32:36;;;;;;;;;38.50;33.75;;;;;;;;5035180;28;45397;-83
2022/03/09 08:35:02;;;;;;;;;33.75;28.00;;;;;;;;5038376;28;46149;-82
2022/03/09 08:37:27;;;;;;;;;31.50;29.75;;;;;;;;5042504;28;45327;-82
2022/03/09 08:39:52;;;;;;;;;26.50;25.25;;;;;;;;5022893;28;45545;-82
2022/03/09 08:42:17;;;;;;;;;27.50;22.00;;;;;;;;5035697;28;45813;-84
2022/03/09 08:44:43;;;;;;;;;27.50;23.25;;;;;;;;5034589;28;45408;-84
2022/03/09 08:47:08;;;;;;;;;29.00;26.50;;;;;;;;5029299;28;45470;-85
2022/03/09 08:49:33;;;;;;;;;24.75;24.00;;;;;;;;5023625;28;45420;-82
2022/03/09 08:51:59;;;;;;;;;23.25;21.50;;;;;;;;5019021;28;45351;-82
2022/03/09 08:54:24;;;;;;;;;28.50;28.50;;;;;;;;5035868;28;45680;-82
2022/03/09 08:56:49;;;;;;;;;26.00;22.75;;;;;;;;5034018;28;45442;-83
2022/03/09 08:59:15;;;;;;;;;27.25;23.50;;;;;;;;5034030;28;45306;-83
2022/03/09 09:01:40;;;;;;;;;27.50;25.25;;;;;;;;5032784;28;45284;-83
2022/03/09 09:04:05;;;;;;;;;27.75;23.50;;;;;;;;5019514;28;46086;-84
2022/03/09 09:06:30;;;;;;;;;31.75;24.50;;;;;;;;5018148;28;45406;-83
2022/03/09 09:08:55;;;;;;;;;29.00;25.50;;;;;;;;5034700;28;45515;-84
2022/03/09 09:11:21;;;;;;;;;36.00;26.50;;;;;;;;5026543;28;45414;-82
2022/03/09 09:13:46;;;;;;;;;30.50;27.50;;;;;;;;5032701;28;46130;-83
2022/03/09 09:16:12;;;;;;;;;29.50;26.50;;;;;;;;5046653;28;45632;-82
2022/03/09 09:18:38;;;;;;;;;31.75;28.00;;;;;;;;5037031;28;45365;-82
2022/03/09 09:21:04;;;;;;;;;33.75;31.50;;;;;;;;5035121;28;45225;-83
2022/03/09 09:23:29;;;;;;;;;28.75;26.75;;;;;;;;5033800;28;46745;-83
2022/03/09 09:25:54;;;;;;;;;29.25;27.00;;;;;;;;5012220;28;45207;-83
2022/03/09 09:28:19;;;;;;;;;35.50;29.50;;;;;;;;5021607;28;45392;-83
2022/03/09 09:30:45;;;;;;;;;35.50;33.25;;;;;;;;5033739;28;45382;-82
2022/03/09 09:33:10;;;;;;;;;32.50;30.50;;;;;;;;5034452;28;47100;-83
2022/03/09 09:35:35;;;;;;;;;36.00;31.50;;;;;;;;5024638;28;45228;-82
2022/03/09 09:38:06;;;;;;;;;29.25;27.50;;;;;;;;5026259;28;45766;-83
2022/03/09 09:40:32;;;;;;;;;26.50;23.50;;;;;;;;5033004;28;45547;-83
2022/03/09 09:42:57;;;;;;;;;30.00;28.75;;;;;;;;5019119;28;46340;-83
2022/03/09 09:45:23;;;;;;;;;31.25;27.75;;;;;;;;5036193;28;45246;-84
2022/03/09 09:47:48;;;;;;;;;20.75;20.75;;;;;;;;5034884;28;45750;-83
2022/03/09 09:50:14;;;;;;;;;23.00;22.00;;;;;;;;5016638;28;45447;-84
2022/03/09 09:52:40;;;;;;;;;27.25;23.25;;;;;;;;5033597;28;46250;-84
2022/03/09 09:55:07;;;;;;;;;20.00;19.00;;;;;;;;5021201;28;45368;-83
2022/03/09 09:57:33;;;;;;;;;22.00;20.25;;;;;;;;5021210;28;45470;-84
2022/03/09 09:59:58;;;;;;;;;17.50;16.25;;;;;;;;5037194;28;45329;-83
2022/03/09 10:02:24;;;;;;;;;18.00;17.00;;;;;;;;5036725;28;45321;-83
2022/03/09 10:04:50;;;;;;;;;20.75;18.75;;;;;;;;5034297;28;45535;-82
2022/03/09 10:07:16;;;;;;;;;16.75;16.00;;;;;;;;5024166;28;45641;-83
2022/03/09 10:09:41;;;;;;;;;15.25;15.00;;;;;;;;5036840;28;46882;-83
2022/03/09 10:12:07;;;;;;;;;18.50;16.00;;;;;;;;5035432;28;47136;-83
2022/03/09 10:14:42;;;;;;;;;16.50;15.25;;;;;;;;5036851;28;45280;-83
2022/03/09 10:17:08;;;;;;;;;14.25;13.50;;;;;;;;5032014;28;45502;-84
2022/03/09 10:19:35;;;;;;;;;17.50;12.75;;;;;;;;5026532;28;45286;-83
2022/03/09 10:22:21;;;;;;;;;15.50;14.25;;;;;;;;5037535;28;47542;-83
2022/03/09 10:24:46;;;;;;;;;16.50;14.25;;;;;;;;5036487;28;45295;-83
2022/03/09 10:27:11;;;;;;;;;17.75;16.00;;;;;;;;5038644;28;45297;-84
2022/03/09 10:29:37;;;;;;;;;13.75;12.25;;;;;;;;5028160;28;45418;-84
2022/03/09 10:32:02;;;;;;;;;15.75;13.75;;;;;;;;5030099;28;46286;-84
2022/03/09 10:34:29;;;;;;;;;16.50;10.00;;;;;;;;5037631;28;45529;-84
2022/03/09 10:37:06;;;;;;;;;13.75;11.75;;;;;;;;5023083;28;45394;-82
2022/03/09 10:39:34;;;;;;;;;20.00;18.00;;;;;;;;5037703;28;45277;-84
2022/03/09 10:41:59;;;;;;;;;19.00;17.25;;;;;;;;5024060;28;46184;-85
2022/03/09 10:44:42;;;;;;;;;15.75;14.75;;;;;;;;5014921;28;45407;-84
2022/03/09 10:47:07;;;;;;;;;16.00;14.75;;;;;;;;5036614;28;45414;-83
2022/03/09 10:49:32;;;;;;;;;19.00;14.50;;;;;;;;5035835;28;45341;-84
2022/03/09 10:51:58;;;;;;;;;20.00;19.00;;;;;;;;5020347;28;46472;-85
2022/03/09 10:54:24;;;;;;;;;18.50;13.75;;;;;;;;5022201;28;45351;-83
2022/03/09 10:56:50;;;;;;;;;15.50;14.75;;;;;;;;5036113;28;45366;-84
2022/03/09 10:59:16;;;;;;;;;19.25;18.25;;;;;;;;5037312;28;45435;-84
2022/03/09 11:01:43;;;;;;;;;16.75;13.25;;;;;;;;5037208;28;46388;-86
2022/03/09 11:04:12;;;;;;;;;16.25;14.25;;;;;;;;5039092;28;45420;-85
2022/03/09 11:06:40;;;;;;;;;17.75;14.00;;;;;;;;5020836;28;45363;-85
2022/03/09 11:09:05;;;;;;;;;18.00;16.50;;;;;;;;5036967;28;45246;-83
2022/03/09 11:11:31;;;;;;;;;19.75;18.00;;;;;;;;5035893;28;47143;-84
2022/03/09 11:13:58;;;;;;;;;19.75;15.00;;;;;;;;5036827;28;45260;-83
2022/03/09 11:16:23;;;;;;;;;15.25;12.00;;;;;;;;5039301;28;45554;-83
2022/03/09 11:18:49;;;;;;;;;13.25;11.75;;;;;;;;5032426;28;45302;-86
2022/03/09 11:21:14;;;;;;;;;14.00;14.00;;;;;;;;5025791;28;46942;-87
2022/03/09 11:23:40;;;;;;;;;19.25;17.25;;;;;;;;5035410;28;45401;-86
2022/03/09 11:26:08;;;;;;;;;20.50;16.50;;;;;;;;5031390;28;45635;-85
2022/03/09 11:28:35;;;;;;;;;17.00;16.75;;;;;;;;5027238;28;45480;-86
2022/03/09 11:31:05;;;;;;;;;18.75;15.00;;;;;;;;5036334;28;47260;-86
2022/03/09 11:33:39;;;;;;;;;18.50;16.50;;;;;;;;5038258;28;45847;-85
2022/03/09 11:36:23;;;;;;;;;20.50;18.50;;;;;;;;5022546;28;45375;-87
2022/03/09 11:38:52;;;;;;;;;17.75;14.75;;;;;;;;5035752;28;45374;-86
2022/03/09 11:41:19;;;;;;;;;15.75;15.75;;;;;;;;5037011;28;46769;-88
2022/03/09 11:43:44;;;;;;;;;25.50;24.75;;;;;;;;5038693;28;45394;-88
2022/03/09 11:46:10;;;;;;;;;10.25;10.00;;;;;;;;5038978;28;45154;-87
2022/03/09 11:48:48;;;;;;;;;10.25;10.25;;;;;;;;5038907;28;45329;-88
2022/03/09 11:51:13;;;;;;;;;11.25;8.25;;;;;;;;5032968;28;45452;-87
2022/03/09 11:53:43;;;;;;;;;12.75;9.75;;;;;;;;5038468;28;45311;-86
2022/03/09 11:56:21;;;;;;;;;11.50;10.50;;;;;;;;5038584;28;45434;-85
2022/03/09 11:59:05;;;;;;;;;11.00;10.50;;;;;;;;5034166;28;45551;-88
2022/03/09 12:01:30;;;;;;;;;9.00;8.50;;;;;;;;5026130;28;45420;-85
2022/03/09 12:03:56;;;;;;;;;20.75;19.25;;;;;;;;5037454;28;45587;-84
2022/03/09 12:06:40;;;;;;;;;9.00;9.00;;;;;;;;5037428;28;45323;-84
2022/03/09 12:09:05;;;;;;;;;13.25;12.00;;;;;;;;5023315;28;45318;-82
2022/03/09 12:11:30;;;;;;;;;10.50;10.00;;;;;;;;5024378;28;45371;-84
2022/03/09 12:13:56;;;;;;;;;11.50;11.50;;;;;;;;5027451;28;45356;-84
2022/03/09 12:16:23;;;;;;;;;11.00;11.00;;;;;;;;5037195;28;45377;-83
2022/03/09 12:19:06;;;;;;;;;13.75;10.75;;;;;;;;5024941;28;45972;-84
2022/03/09 12:21:32;;;;;;;;;13.25;11.25;;;;;;;;5031928;28;45296;-86
2022/03/09 12:24:01;;;;;;;;;11.00;11.00;;;;;;;;5036941;28;45320;-86
2022/03/09 12:26:45;;;;;;;;;13.00;11.25;;;;;;;;5028677;28;45381;-87
2022/03/09 12:29:33;;;;;;;;;11.00;11.00;;;;;;;;5034540;28;45314;-86
2022/03/09 12:31:58;;;;;;;;;15.00;12.50;;;;;;;;5034001;28;45436;-86
2022/03/09 12:34:27;;;;;;;;;11.25;10.75;;;;;;;;5023056;28;45286;-86
2022/03/09 12:36:53;;;;;;;;;15.50;15.50;;;;;;;;5034895;28;45292;-87
2022/03/09 12:39:18;;;;;;;;;11.50;10.00;;;;;;;;5036234;28;45538;-86
2022/03/09 12:41:44;;;;;;;;;10.50;10.50;;;;;;;;5036980;28;45445;-86
2022/03/09 12:44:16;;;;;;;;;7.25;6.25;;;;;;;;5029600;28;45608;-86
2022/03/09 12:46:43;;;;;;;;;16.00;13.75;;;;;;;;5025211;28;45496;-85
2022/03/09 12:49:13;;;;;;;;;9.75;9.75;;;;;;;;5036228;28;45341;-86
2022/03/09 12:51:47;;;;;;;;;13.00;11.25;;;;;;;;5021791;28;45464;-85
2022/03/09 12:54:13;;;;;;;;;10.75;9.75;;;;;;;;5037464;28;45278;-86
2022/03/09 12:56:38;;;;;;;;;7.00;7.00;;;;;;;;5037995;28;45462;-86
2022/03/09 12:59:08;;;;;;;;;14.25;11.50;;;;;;;;5038579;28;45320;-87
2022/03/09 13:01:33;;;;;;;;;8.00;8.00;;;;;;;;5038416;28;46153;-86
2022/03/09 13:03:59;;;;;;;;;10.00;10.00;;;;;;;;5038119;28;45394;-86
2022/03/09 13:06:32;;;;;;;;;6.25;5.25;;;;;;;;5042404;28;45459;-86
2022/03/09 13:08:58;;;;;;;;;7.25;7.25;;;;;;;;5039463;28;45653;-87
2022/03/09 13:11:33;;;;;;;;;7.00;6.00;;;;;;;;5029784;28;45269;-85
2022/03/09 13:13:59;;;;;;;;;10.00;9.25;;;;;;;;5029536;28;45385;-84
2022/03/09 13:16:26;;;;;;;;;10.75;9.00;;;;;;;;5037281;28;45451;-85
2022/03/09 13:19:00;;;;;;;;;10.00;8.75;;;;;;;;5025285;28;45483;-87
2022/03/09 13:21:29;;;;;;;;;9.50;8.50;;;;;;;;5046521;28;46596;-86
2022/03/09 13:24:02;;;;;;;;;8.75;7.75;;;;;;;;5025172;28;45375;-87
2022/03/09 13:26:28;;;;;;;;;8.00;8.00;;;;;;;;5024556;28;45397;-87
2022/03/09 13:28:58;;;;;;;;;9.25;7.75;;;;;;;;5025894;28;45444;-87
2022/03/09 13:31:42;;;;;;;;;10.00;7.75;;;;;;;;5037418;28;45505;-87
2022/03/09 13:34:11;;;;;;;;;10.50;9.50;;;;;;;;5037449;28;45328;-86
2022/03/09 13:36:36;;;;;;;;;9.00;9.00;;;;;;;;5038167;28;45276;-87
2022/03/09 13:39:01;;;;;;;;;11.25;8.00;;;;;;;;5040657;28;45284;-85
2022/03/09 13:41:27;;;;;;;;;6.50;6.50;;;;;;;;5040587;28;46296;-87
2022/03/09 13:43:52;;;;;;;;;8.75;7.75;;;;;;;;5037642;28;45229;-86
2022/03/09 13:46:19;;;;;;;;;14.50;9.25;;;;;;;;5037474;28;45300;-88
2022/03/09 13:48:44;;;;;;;;;14.25;10.75;;;;;;;;5020969;28;45464;-86
2022/03/09 13:51:09;;;;;;;;;11.50;9.50;;;;;;;;5036857;28;46673;-86
2022/03/09 13:53:36;;;;;;;;;11.25;9.75;;;;;;;;5037751;28;45283;-87
2022/03/09 13:56:15;;;;;;;;;8.00;6.00;;;;;;;;5035869;28;45258;-86
2022/03/09 13:58:41;;;;;;;;;7.25;7.25;;;;;;;;5036859;28;45541;-86
2022/03/09 14:01:09;;;;;;;;;10.75;9.75;;;;;;;;5036519;28;46925;-86
2022/03/09 14:03:38;;;;;;;;;12.75;11.00;;;;;;;;5022273;28;45442;-87
2022/03/09 14:06:11;;;;;;;;;11.75;11.75;;;;;;;;5046382;28;45317;-85
2022/03/09 14:08:36;;;;;;;;;11.50;10.50;;;;;;;;5035352;28;45500;-86
2022/03/09 14:11:08;;;;;;;;;12.50;11.25;;;;;;;;5047004;28;46279;-86
2022/03/09 14:13:34;;;;;;;;;11.75;11.75;;;;;;;;5030121;28;44759;-85
2022/03/09 14:16:00;;;;;;;;;10.25;9.50;;;;;;;;5025955;28;45324;-86